sensor_id;sensor_type;location;lat;lon;timestamp;temperature;humidity
47520;DHT22;33252;48.122;11.538;2023-04-01T00:00:53;7.70;99.90
47520;DHT22;33252;48.122;11.538;2023-04-01T00:03:20;7.70;99.90
47520;DHT22;33252;48.122;11.538;2023-04-01T00:05:46;7.70;99.90
47520;DHT22;33252;48.122;11.538;2023-04-01T00:08:12;7.60;99.90
47520;DHT22;33252;48.122;11.538;2023-04-01T00:10:38;7.60;99.90
47520;DHT22;33252;48.122;11.538;2023-04-01T00:13:04;7.70;99.90
47520;DHT22;33252;48.122;11.538;2023-04-01T00:15:30;7.60;99.90
47520;DHT22;33252;48.122;11.538;2023-04-01T00:17:55;7.70;99.90
47520;DHT22;33252;48.122;11.538;2023-04-01T00:20:21;7.70;99.90
47520;DHT22;33252;48.122;11.538;2023-04-01T00:22:47;7.70;99.90
47520;DHT22;33252;48.122;11.538;2023-04-01T00:25:13;7.60;99.90
47520;DHT22;33252;48.122;11.538;2023-04-01T00:27:39;7.60;99.90
47520;DHT22;33252;48.122;11.538;2023-04-01T00:30:05;7.60;99.90
47520;DHT22;33252;48.122;11.538;2023-04-01T00:32:31;7.60;99.90
47520;DHT22;33252;48.122;11.538;2023-04-01T00:34:56;7.60;99.90
47520;DHT22;33252;48.122;11.538;2023-04-01T00:37:25;7.50;99.90
47520;DHT22;33252;48.122;11.538;2023-04-01T00:39:51;7.60;99.90
47520;DHT22;33252;48.122;11.538;2023-04-01T00:42:16;7.50;99.90
47520;DHT22;33252;48.122;11.538;2023-04-01T00:44:45;7.50;99.90
47520;DHT22;33252;48.122;11.538;2023-04-01T00:47:11;7.60;99.90
47520;DHT22;33252;48.122;11.538;2023-04-01T00:49:39;7.60;99.90
47520;DHT22;33252;48.122;11.538;2023-04-01T00:52:07;7.50;99.90
47520;DHT22;33252;48.122;11.538;2023-04-01T00:54:34;7.50;99.90
47520;DHT22;33252;48.122;11.538;2023-04-01T00:57:08;7.50;99.90
47520;DHT22;33252;48.122;11.538;2023-04-01T00:59:44;7.50;99.90
47520;DHT22;33252;48.122;11.538;2023-04-01T01:02:12;7.60;99.90
47520;DHT22;33252;48.122;11.538;2023-04-01T01:04:38;7.60;99.90
47520;DHT22;33252;48.122;11.538;2023-04-01T01:07:12;7.60;99.90
47520;DHT22;33252;48.122;11.538;2023-04-01T01:12:21;7.60;99.90
47520;DHT22;33252;48.122;11.538;2023-04-01T01:31:23;7.80;99.90
47520;DHT22;33252;48.122;11.538;2023-04-01T01:36:39;7.80;99.90
47520;DHT22;33252;48.122;11.538;2023-04-01T01:39:08;7.70;99.90
47520;DHT22;33252;48.122;11.538;2023-04-01T01:41:36;7.70;99.90
47520;DHT22;33252;48.122;11.538;2023-04-01T01:44:07;7.70;99.90
47520;DHT22;33252;48.122;11.538;2023-04-01T01:46:33;7.70;99.90
47520;DHT22;33252;48.122;11.538;2023-04-01T01:49:00;7.70;99.90
47520;DHT22;33252;48.122;11.538;2023-04-01T01:51:27;7.70;99.90
47520;DHT22;33252;48.122;11.538;2023-04-01T01:53:54;7.70;99.90
47520;DHT22;33252;48.122;11.538;2023-04-01T01:56:23;7.70;99.90
47520;DHT22;33252;48.122;11.538;2023-04-01T01:58:52;7.70;99.90
47520;DHT22;33252;48.122;11.538;2023-04-01T02:01:26;7.70;99.90
47520;DHT22;33252;48.122;11.538;2023-04-01T02:03:53;7.70;99.90
47520;DHT22;33252;48.122;11.538;2023-04-01T02:06:22;7.70;99.90
47520;DHT22;33252;48.122;11.538;2023-04-01T02:08:55;7.70;99.90
47520;DHT22;33252;48.122;11.538;2023-04-01T02:11:27;7.70;99.90
47520;DHT22;33252;48.122;11.538;2023-04-01T02:14:01;7.70;99.90
47520;DHT22;33252;48.122;11.538;2023-04-01T02:18:58;7.70;99.90
47520;DHT22;33252;48.122;11.538;2023-04-01T02:21:28;7.80;99.90
47520;DHT22;33252;48.122;11.538;2023-04-01T02:23:56;7.70;99.90
47520;DHT22;33252;48.122;11.538;2023-04-01T02:26:24;7.70;99.90
47520;DHT22;33252;48.122;11.538;2023-04-01T02:28:53;7.70;99.90
47520;DHT22;33252;48.122;11.538;2023-04-01T02:31:19;7.70;99.90
47520;DHT22;33252;48.122;11.538;2023-04-01T02:33:45;7.70;99.90
47520;DHT22;33252;48.122;11.538;2023-04-01T02:36:13;7.60;99.90
47520;DHT22;33252;48.122;11.538;2023-04-01T02:38:41;7.70;99.90
47520;DHT22;33252;48.122;11.538;2023-04-01T02:41:06;7.70;99.90
47520;DHT22;33252;48.122;11.538;2023-04-01T02:43:32;7.70;99.90
47520;DHT22;33252;48.122;11.538;2023-04-01T02:45:58;7.60;99.90
47520;DHT22;33252;48.122;11.538;2023-04-01T02:48:24;7.70;99.90
47520;DHT22;33252;48.122;11.538;2023-04-01T02:50:49;7.60;99.90
47520;DHT22;33252;48.122;11.538;2023-04-01T02:53:15;7.60;99.90
47520;DHT22;33252;48.122;11.538;2023-04-01T02:55:41;7.60;99.90
47520;DHT22;33252;48.122;11.538;2023-04-01T02:58:07;7.60;99.90
47520;DHT22;33252;48.122;11.538;2023-04-01T03:00:33;7.70;99.90
47520;DHT22;33252;48.122;11.538;2023-04-01T03:02:59;7.60;99.90
47520;DHT22;33252;48.122;11.538;2023-04-01T03:05:25;7.60;99.90
47520;DHT22;33252;48.122;11.538;2023-04-01T03:07:51;7.60;99.90
47520;DHT22;33252;48.122;11.538;2023-04-01T03:10:17;7.60;99.90
47520;DHT22;33252;48.122;11.538;2023-04-01T03:12:43;7.50;99.90
47520;DHT22;33252;48.122;11.538;2023-04-01T03:15:12;7.50;99.90
47520;DHT22;33252;48.122;11.538;2023-04-01T03:17:40;7.50;99.90
47520;DHT22;33252;48.122;11.538;2023-04-01T03:20:07;7.50;99.90
47520;DHT22;33252;48.122;11.538;2023-04-01T03:22:34;7.50;99.90
47520;DHT22;33252;48.122;11.538;2023-04-01T03:25:01;7.50;99.90
47520;DHT22;33252;48.122;11.538;2023-04-01T03:27:27;7.50;99.90
47520;DHT22;33252;48.122;11.538;2023-04-01T03:29:52;7.50;99.90
47520;DHT22;33252;48.122;11.538;2023-04-01T03:32:18;7.40;99.90
47520;DHT22;33252;48.122;11.538;2023-04-01T03:34:44;7.40;99.90
47520;DHT22;33252;48.122;11.538;2023-04-01T03:37:09;7.40;99.90
47520;DHT22;33252;48.122;11.538;2023-04-01T03:39:35;7.40;99.90
47520;DHT22;33252;48.122;11.538;2023-04-01T03:42:01;7.30;99.90
47520;DHT22;33252;48.122;11.538;2023-04-01T03:44:31;7.30;99.90
47520;DHT22;33252;48.122;11.538;2023-04-01T03:46:59;7.20;99.90
47520;DHT22;33252;48.122;11.538;2023-04-01T03:49:24;7.30;99.90
47520;DHT22;33252;48.122;11.538;2023-04-01T03:51:50;7.30;99.90
47520;DHT22;33252;48.122;11.538;2023-04-01T03:54:16;7.30;99.90
47520;DHT22;33252;48.122;11.538;2023-04-01T03:56:42;7.20;99.90
47520;DHT22;33252;48.122;11.538;2023-04-01T03:59:08;7.20;99.90
47520;DHT22;33252;48.122;11.538;2023-04-01T04:01:34;7.20;99.90
47520;DHT22;33252;48.122;11.538;2023-04-01T04:04:00;7.10;99.90
47520;DHT22;33252;48.122;11.538;2023-04-01T04:06:27;7.20;99.90
47520;DHT22;33252;48.122;11.538;2023-04-01T04:08:53;7.10;99.90
47520;DHT22;33252;48.122;11.538;2023-04-01T04:11:19;7.10;99.90
47520;DHT22;33252;48.122;11.538;2023-04-01T04:13:45;7.10;99.90
47520;DHT22;33252;48.122;11.538;2023-04-01T04:16:13;7.20;99.90
47520;DHT22;33252;48.122;11.538;2023-04-01T04:18:39;7.10;99.90
47520;DHT22;33252;48.122;11.538;2023-04-01T04:21:05;7.20;99.90
47520;DHT22;33252;48.122;11.538;2023-04-01T04:23:31;7.10;99.90
47520;DHT22;33252;48.122;11.538;2023-04-01T04:26:04;7.20;99.90
47520;DHT22;33252;48.122;11.538;2023-04-01T04:28:31;7.20;99.90
47520;DHT22;33252;48.122;11.538;2023-04-01T04:30:57;7.30;99.90
47520;DHT22;33252;48.122;11.538;2023-04-01T04:33:23;7.20;99.90
47520;DHT22;33252;48.122;11.538;2023-04-01T04:35:49;7.30;99.90
47520;DHT22;33252;48.122;11.538;2023-04-01T04:38:15;7.30;99.90
47520;DHT22;33252;48.122;11.538;2023-04-01T04:40:42;7.20;99.90
47520;DHT22;33252;48.122;11.538;2023-04-01T04:43:10;7.30;99.90
47520;DHT22;33252;48.122;11.538;2023-04-01T04:45:36;7.20;99.90
47520;DHT22;33252;48.122;11.538;2023-04-01T04:48:02;7.30;99.90
47520;DHT22;33252;48.122;11.538;2023-04-01T04:50:27;7.30;99.90
47520;DHT22;33252;48.122;11.538;2023-04-01T04:52:53;7.30;99.90
47520;DHT22;33252;48.122;11.538;2023-04-01T04:55:19;7.30;99.90
47520;DHT22;33252;48.122;11.538;2023-04-01T04:57:45;7.30;99.90
47520;DHT22;33252;48.122;11.538;2023-04-01T05:00:11;7.40;99.90
47520;DHT22;33252;48.122;11.538;2023-04-01T05:02:37;7.40;99.90
47520;DHT22;33252;48.122;11.538;2023-04-01T05:05:02;7.30;99.90
47520;DHT22;33252;48.122;11.538;2023-04-01T05:07:29;7.40;99.90
47520;DHT22;33252;48.122;11.538;2023-04-01T05:09:55;7.40;99.90
47520;DHT22;33252;48.122;11.538;2023-04-01T05:12:20;7.50;99.90
47520;DHT22;33252;48.122;11.538;2023-04-01T05:14:46;7.50;99.90
47520;DHT22;33252;48.122;11.538;2023-04-01T05:17:13;7.50;99.90
47520;DHT22;33252;48.122;11.538;2023-04-01T05:19:39;7.50;99.90
47520;DHT22;33252;48.122;11.538;2023-04-01T05:22:05;7.50;99.90
47520;DHT22;33252;48.122;11.538;2023-04-01T05:24:31;7.60;99.90
47520;DHT22;33252;48.122;11.538;2023-04-01T05:26:58;7.60;99.90
47520;DHT22;33252;48.122;11.538;2023-04-01T05:29:24;7.60;99.90
47520;DHT22;33252;48.122;11.538;2023-04-01T05:31:50;7.60;99.90
47520;DHT22;33252;48.122;11.538;2023-04-01T05:34:16;7.60;99.90
47520;DHT22;33252;48.122;11.538;2023-04-01T05:36:43;7.60;99.90
47520;DHT22;33252;48.122;11.538;2023-04-01T05:39:09;7.60;99.90
47520;DHT22;33252;48.122;11.538;2023-04-01T05:41:35;7.60;99.90
47520;DHT22;33252;48.122;11.538;2023-04-01T05:44:01;7.60;99.90
47520;DHT22;33252;48.122;11.538;2023-04-01T05:46:27;7.60;99.90
47520;DHT22;33252;48.122;11.538;2023-04-01T05:48:53;7.60;99.80
47520;DHT22;33252;48.122;11.538;2023-04-01T05:51:18;7.60;99.90
47520;DHT22;33252;48.122;11.538;2023-04-01T05:53:44;7.70;99.90
47520;DHT22;33252;48.122;11.538;2023-04-01T05:56:10;7.70;99.80
47520;DHT22;33252;48.122;11.538;2023-04-01T05:58:37;7.70;99.50
47520;DHT22;33252;48.122;11.538;2023-04-01T06:01:10;7.70;99.70
47520;DHT22;33252;48.122;11.538;2023-04-01T06:03:36;7.80;99.20
47520;DHT22;33252;48.122;11.538;2023-04-01T06:06:02;7.80;99.50
47520;DHT22;33252;48.122;11.538;2023-04-01T06:08:30;7.80;99.30
47520;DHT22;33252;48.122;11.538;2023-04-01T06:14:07;7.80;99.50
47520;DHT22;33252;48.122;11.538;2023-04-01T06:19:50;7.80;98.70
47520;DHT22;33252;48.122;11.538;2023-04-01T06:22:27;7.80;98.50
47520;DHT22;33252;48.122;11.538;2023-04-01T06:41:31;8.10;97.80
47520;DHT22;33252;48.122;11.538;2023-04-01T06:47:01;8.10;97.70
47520;DHT22;33252;48.122;11.538;2023-04-01T06:52:18;8.10;97.60
47520;DHT22;33252;48.122;11.538;2023-04-01T06:57:49;8.20;97.30
47520;DHT22;33252;48.122;11.538;2023-04-01T07:00:35;8.30;97.10
47520;DHT22;33252;48.122;11.538;2023-04-01T07:03:40;8.40;96.90
47520;DHT22;33252;48.122;11.538;2023-04-01T07:06:56;8.50;96.50
47520;DHT22;33252;48.122;11.538;2023-04-01T07:09:06;8.50;96.50
47520;DHT22;33252;48.122;11.538;2023-04-01T07:11:36;8.50;96.50
47520;DHT22;33252;48.122;11.538;2023-04-01T07:14:16;8.50;96.30
47520;DHT22;33252;48.122;11.538;2023-04-01T07:17:05;8.40;96.20
47520;DHT22;33252;48.122;11.538;2023-04-01T07:20:02;8.50;96.30
47520;DHT22;33252;48.122;11.538;2023-04-01T07:23:13;8.50;96.10
47520;DHT22;33252;48.122;11.538;2023-04-01T07:25:38;8.50;96.60
47520;DHT22;33252;48.122;11.538;2023-04-01T07:28:12;8.60;96.40
47520;DHT22;33252;48.122;11.538;2023-04-01T07:30:51;8.50;96.10
47520;DHT22;33252;48.122;11.538;2023-04-01T07:36:39;8.70;95.90
47520;DHT22;33252;48.122;11.538;2023-04-01T07:54:02;9.20;95.60
47520;DHT22;33252;48.122;11.538;2023-04-01T07:56:46;9.30;95.30
47520;DHT22;33252;48.122;11.538;2023-04-01T07:59:31;9.50;95.40
47520;DHT22;33252;48.122;11.538;2023-04-01T08:02:12;9.40;95.00
47520;DHT22;33252;48.122;11.538;2023-04-01T08:07:31;9.30;94.80
47520;DHT22;33252;48.122;11.538;2023-04-01T08:10:03;9.40;95.00
47520;DHT22;33252;48.122;11.538;2023-04-01T08:16:19;9.40;94.40
47520;DHT22;33252;48.122;11.538;2023-04-01T08:21:47;9.40;94.10
47520;DHT22;33252;48.122;11.538;2023-04-01T08:24:42;9.50;94.30
47520;DHT22;33252;48.122;11.538;2023-04-01T08:27:41;9.50;93.90
47520;DHT22;33252;48.122;11.538;2023-04-01T08:30:25;9.40;93.90
47520;DHT22;33252;48.122;11.538;2023-04-01T08:35:46;9.50;93.60
47520;DHT22;33252;48.122;11.538;2023-04-01T08:38:19;9.60;93.80
47520;DHT22;33252;48.122;11.538;2023-04-01T08:40:59;9.80;93.60
47520;DHT22;33252;48.122;11.538;2023-04-01T08:57:21;9.80;93.70
47520;DHT22;33252;48.122;11.538;2023-04-01T09:00:18;9.80;93.30
47520;DHT22;33252;48.122;11.538;2023-04-01T09:03:19;9.80;93.70
47520;DHT22;33252;48.122;11.538;2023-04-01T09:06:24;10.10;93.70
47520;DHT22;33252;48.122;11.538;2023-04-01T09:28:38;10.80;91.70
47520;DHT22;33252;48.122;11.538;2023-04-01T09:31:32;10.80;92.10
47520;DHT22;33252;48.122;11.538;2023-04-01T09:37:20;10.70;91.50
47520;DHT22;33252;48.122;11.538;2023-04-01T09:40:00;10.70;91.80
47520;DHT22;33252;48.122;11.538;2023-04-01T09:45:27;10.70;91.30
47520;DHT22;33252;48.122;11.538;2023-04-01T09:50:31;11.00;91.60
47520;DHT22;33252;48.122;11.538;2023-04-01T09:58:33;11.00;90.80
47520;DHT22;33252;48.122;11.538;2023-04-01T10:12:44;11.40;90.30
47520;DHT22;33252;48.122;11.538;2023-04-01T10:23:50;11.30;90.50
47520;DHT22;33252;48.122;11.538;2023-04-01T10:29:16;11.20;90.10
47520;DHT22;33252;48.122;11.538;2023-04-01T10:35:08;11.70;90.60
47520;DHT22;33252;48.122;11.538;2023-04-01T10:44:36;11.20;90.30
47520;DHT22;33252;48.122;11.538;2023-04-01T10:52:37;11.30;90.40
47520;DHT22;33252;48.122;11.538;2023-04-01T11:08:51;10.60;93.00
47520;DHT22;33252;48.122;11.538;2023-04-01T11:12:02;10.30;94.50
47520;DHT22;33252;48.122;11.538;2023-04-01T11:15:04;10.40;95.60
47520;DHT22;33252;48.122;11.538;2023-04-01T11:17:42;10.40;96.30
47520;DHT22;33252;48.122;11.538;2023-04-01T11:26:08;10.30;96.10
47520;DHT22;33252;48.122;11.538;2023-04-01T11:37:21;10.20;96.90
47520;DHT22;33252;48.122;11.538;2023-04-01T11:43:11;10.00;94.90
47520;DHT22;33252;48.122;11.538;2023-04-01T11:45:49;9.50;95.80
47520;DHT22;33252;48.122;11.538;2023-04-01T11:48:51;9.50;96.40
47520;DHT22;33252;48.122;11.538;2023-04-01T12:02:11;9.20;99.90
47520;DHT22;33252;48.122;11.538;2023-04-01T12:04:58;9.20;99.90
47520;DHT22;33252;48.122;11.538;2023-04-01T12:10:26;9.00;99.90
47520;DHT22;33252;48.122;11.538;2023-04-01T12:16:41;8.80;99.90
47520;DHT22;33252;48.122;11.538;2023-04-01T12:19:04;8.70;99.90
47520;DHT22;33252;48.122;11.538;2023-04-01T12:21:37;8.70;99.90
47520;DHT22;33252;48.122;11.538;2023-04-01T12:30:06;8.70;99.90
47520;DHT22;33252;48.122;11.538;2023-04-01T12:33:24;8.60;99.90
47520;DHT22;33252;48.122;11.538;2023-04-01T12:36:12;8.70;99.90
47520;DHT22;33252;48.122;11.538;2023-04-01T13:13:58;8.60;99.90
47520;DHT22;33252;48.122;11.538;2023-04-01T13:19:21;8.70;99.90
47520;DHT22;33252;48.122;11.538;2023-04-01T13:24:39;8.50;99.90
47520;DHT22;33252;48.122;11.538;2023-04-01T13:27:30;8.50;99.90
47520;DHT22;33252;48.122;11.538;2023-04-01T13:41:10;8.40;99.90
47520;DHT22;33252;48.122;11.538;2023-04-01T13:43:49;8.30;99.90
47520;DHT22;33252;48.122;11.538;2023-04-01T14:00:06;8.50;99.90
47520;DHT22;33252;48.122;11.538;2023-04-01T14:02:56;8.50;99.90
47520;DHT22;33252;48.122;11.538;2023-04-01T14:13:07;8.60;99.90
47520;DHT22;33252;48.122;11.538;2023-04-01T14:19:27;8.50;99.90
47520;DHT22;33252;48.122;11.538;2023-04-01T14:35:19;8.70;99.90
47520;DHT22;33252;48.122;11.538;2023-04-01T14:48:56;8.90;99.90
47520;DHT22;33252;48.122;11.538;2023-04-01T14:51:32;8.90;99.90
47520;DHT22;33252;48.122;11.538;2023-04-01T14:56:46;8.70;99.90
47520;DHT22;33252;48.122;11.538;2023-04-01T15:02:10;8.80;99.90
47520;DHT22;33252;48.122;11.538;2023-04-01T15:05:01;8.80;99.90
47520;DHT22;33252;48.122;11.538;2023-04-01T15:08:15;8.80;99.90
47520;DHT22;33252;48.122;11.538;2023-04-01T15:26:51;9.00;99.90
47520;DHT22;33252;48.122;11.538;2023-04-01T15:32:47;9.10;99.90
47520;DHT22;33252;48.122;11.538;2023-04-01T15:38:54;9.20;99.90
47520;DHT22;33252;48.122;11.538;2023-04-01T15:41:15;9.20;99.90
47520;DHT22;33252;48.122;11.538;2023-04-01T15:43:47;9.20;99.90
47520;DHT22;33252;48.122;11.538;2023-04-01T15:46:44;9.30;99.90
47520;DHT22;33252;48.122;11.538;2023-04-01T15:49:43;9.40;99.90
47520;DHT22;33252;48.122;11.538;2023-04-01T16:03:27;9.50;97.90
47520;DHT22;33252;48.122;11.538;2023-04-01T16:13:42;9.60;96.50
47520;DHT22;33252;48.122;11.538;2023-04-01T16:24:33;9.60;96.80
47520;DHT22;33252;48.122;11.538;2023-04-01T16:33:14;9.50;96.50
47520;DHT22;33252;48.122;11.538;2023-04-01T16:36:09;9.50;96.20
47520;DHT22;33252;48.122;11.538;2023-04-01T16:38:45;9.50;96.70
47520;DHT22;33252;48.122;11.538;2023-04-01T16:41:26;9.50;96.60
47520;DHT22;33252;48.122;11.538;2023-04-01T16:44:09;9.40;96.20
47520;DHT22;33252;48.122;11.538;2023-04-01T16:46:40;9.40;96.60
47520;DHT22;33252;48.122;11.538;2023-04-01T16:57:18;9.30;95.90
47520;DHT22;33252;48.122;11.538;2023-04-01T17:00:02;9.20;96.10
47520;DHT22;33252;48.122;11.538;2023-04-01T17:02:37;9.20;96.40
47520;DHT22;33252;48.122;11.538;2023-04-01T17:05:09;9.20;95.70
47520;DHT22;33252;48.122;11.538;2023-04-01T17:19:53;9.20;96.10
47520;DHT22;33252;48.122;11.538;2023-04-01T17:25:48;9.10;96.00
47520;DHT22;33252;48.122;11.538;2023-04-01T17:31:07;9.10;96.00
47520;DHT22;33252;48.122;11.538;2023-04-01T17:39:35;9.10;96.50
47520;DHT22;33252;48.122;11.538;2023-04-01T17:42:12;9.10;96.10
47520;DHT22;33252;48.122;11.538;2023-04-01T17:47:52;9.10;95.70
47520;DHT22;33252;48.122;11.538;2023-04-01T17:56:04;9.10;95.80
47520;DHT22;33252;48.122;11.538;2023-04-01T17:58:44;9.10;96.10
47520;DHT22;33252;48.122;11.538;2023-04-01T18:04:08;9.10;95.70
47520;DHT22;33252;48.122;11.538;2023-04-01T18:06:47;9.10;95.70
47520;DHT22;33252;48.122;11.538;2023-04-01T18:13:22;9.10;96.00
47520;DHT22;33252;48.122;11.538;2023-04-01T18:18:42;9.10;96.20
47520;DHT22;33252;48.122;11.538;2023-04-01T18:21:28;9.10;95.90
47520;DHT22;33252;48.122;11.538;2023-04-01T18:29:59;9.00;96.90
47520;DHT22;33252;48.122;11.538;2023-04-01T18:38:07;8.80;97.90
47520;DHT22;33252;48.122;11.538;2023-04-01T18:40:51;8.80;98.00
47520;DHT22;33252;48.122;11.538;2023-04-01T18:43:34;8.80;98.20
47520;DHT22;33252;48.122;11.538;2023-04-01T18:46:16;8.70;98.30
47520;DHT22;33252;48.122;11.538;2023-04-01T18:51:44;8.70;99.40
47520;DHT22;33252;48.122;11.538;2023-04-01T18:54:22;8.60;99.90
47520;DHT22;33252;48.122;11.538;2023-04-01T18:56:49;8.60;98.80
47520;DHT22;33252;48.122;11.538;2023-04-01T19:05:16;8.60;99.90
47520;DHT22;33252;48.122;11.538;2023-04-01T19:07:48;8.70;99.90
47520;DHT22;33252;48.122;11.538;2023-04-01T19:12:58;8.60;99.90
47520;DHT22;33252;48.122;11.538;2023-04-01T19:15:57;8.60;99.90
47520;DHT22;33252;48.122;11.538;2023-04-01T19:18:35;8.60;99.90
47520;DHT22;33252;48.122;11.538;2023-04-01T19:26:42;8.50;99.90
47520;DHT22;33252;48.122;11.538;2023-04-01T19:29:26;8.50;99.90
47520;DHT22;33252;48.122;11.538;2023-04-01T19:40:02;8.50;99.90
47520;DHT22;33252;48.122;11.538;2023-04-01T19:53:15;8.30;99.70
47520;DHT22;33252;48.122;11.538;2023-04-01T20:00:48;8.20;99.60
47520;DHT22;33252;48.122;11.538;2023-04-01T20:06:28;8.20;99.80
47520;DHT22;33252;48.122;11.538;2023-04-01T20:14:35;8.10;99.90
47520;DHT22;33252;48.122;11.538;2023-04-01T20:17:21;8.10;99.90
47520;DHT22;33252;48.122;11.538;2023-04-01T20:25:05;8.00;99.90
47520;DHT22;33252;48.122;11.538;2023-04-01T20:27:44;7.90;99.90
47520;DHT22;33252;48.122;11.538;2023-04-01T20:30:30;7.90;99.90
47520;DHT22;33252;48.122;11.538;2023-04-01T20:33:16;7.90;99.90
47520;DHT22;33252;48.122;11.538;2023-04-01T20:41:39;7.90;99.90
47520;DHT22;33252;48.122;11.538;2023-04-01T20:44:17;7.90;99.90
47520;DHT22;33252;48.122;11.538;2023-04-01T20:49:39;7.90;99.90
47520;DHT22;33252;48.122;11.538;2023-04-01T20:57:58;7.90;99.90
47520;DHT22;33252;48.122;11.538;2023-04-01T21:00:45;8.00;99.90
47520;DHT22;33252;48.122;11.538;2023-04-01T21:03:49;7.90;99.90
47520;DHT22;33252;48.122;11.538;2023-04-01T21:14:34;7.90;99.90
47520;DHT22;33252;48.122;11.538;2023-04-01T21:28:52;8.00;99.90
47520;DHT22;33252;48.122;11.538;2023-04-01T21:32:01;8.00;99.90
47520;DHT22;33252;48.122;11.538;2023-04-01T21:57:24;8.00;99.90
47520;DHT22;33252;48.122;11.538;2023-04-01T22:02:54;8.00;99.90
47520;DHT22;33252;48.122;11.538;2023-04-01T22:05:36;8.00;99.90
47520;DHT22;33252;48.122;11.538;2023-04-01T22:08:39;8.00;99.70
47520;DHT22;33252;48.122;11.538;2023-04-01T22:14:19;8.00;99.90
47520;DHT22;33252;48.122;11.538;2023-04-01T22:17:14;8.00;99.80
47520;DHT22;33252;48.122;11.538;2023-04-01T22:19:48;8.00;99.70
47520;DHT22;33252;48.122;11.538;2023-04-01T22:22:52;8.00;99.70
47520;DHT22;33252;48.122;11.538;2023-04-01T22:25:39;8.10;99.90
47520;DHT22;33252;48.122;11.538;2023-04-01T22:31:19;8.00;99.80
47520;DHT22;33252;48.122;11.538;2023-04-01T22:33:57;8.00;99.80
47520;DHT22;33252;48.122;11.538;2023-04-01T22:42:08;8.00;99.70
47520;DHT22;33252;48.122;11.538;2023-04-01T22:47:38;8.00;99.80
47520;DHT22;33252;48.122;11.538;2023-04-01T22:50:41;8.00;99.70
47520;DHT22;33252;48.122;11.538;2023-04-01T22:55:40;8.00;99.50
47520;DHT22;33252;48.122;11.538;2023-04-01T22:58:15;8.00;99.60
47520;DHT22;33252;48.122;11.538;2023-04-01T23:00:50;8.00;99.80
47520;DHT22;33252;48.122;11.538;2023-04-01T23:03:35;8.00;99.50
47520;DHT22;33252;48.122;11.538;2023-04-01T23:06:05;8.00;99.60
47520;DHT22;33252;48.122;11.538;2023-04-01T23:12:03;8.00;99.80
47520;DHT22;33252;48.122;11.538;2023-04-01T23:19:49;8.00;99.60
47520;DHT22;33252;48.122;11.538;2023-04-01T23:22:24;7.90;99.70
47520;DHT22;33252;48.122;11.538;2023-04-01T23:33:29;7.90;99.80
47520;DHT22;33252;48.122;11.538;2023-04-01T23:35:58;7.90;99.90
47520;DHT22;33252;48.122;11.538;2023-04-01T23:38:35;7.90;99.90
47520;DHT22;33252;48.122;11.538;2023-04-01T23:41:02;7.90;99.90
47520;DHT22;33252;48.122;11.538;2023-04-01T23:43:40;7.90;99.90
47520;DHT22;33252;48.122;11.538;2023-04-01T23:46:07;7.90;99.90
47520;DHT22;33252;48.122;11.538;2023-04-01T23:48:36;7.90;99.90
47520;DHT22;33252;48.122;11.538;2023-04-01T23:51:03;7.90;99.90
47520;DHT22;33252;48.122;11.538;2023-04-01T23:53:34;7.90;99.90
47520;DHT22;33252;48.122;11.538;2023-04-01T23:56:02;7.90;99.90
47520;DHT22;33252;48.122;11.538;2023-04-01T23:58:42;7.80;99.90
